Time;durP1;ratioP1;P1;durP2;ratioP2;P2;SDS_P1;SDS_P2;PMS_P1;PMS_P2;Temp;Humidity;BMP_temperature;BMP_pressure;BME280_temperature;BME280_humidity;BME280_pressure;Samples;Min_cycle;Max_cycle;Signal;HPM_P1;HPM_P2
2021/05/22 00:00:17;;;;;;;0.10;0.10;;;;;;;;;;5071169;28;20036;-86
2021/05/22 00:02:43;;;;;;;0.10;0.10;;;;;;;;;;5072225;28;20045;-86
2021/05/22 00:05:09;;;;;;;0.10;0.10;;;;;;;;;;5071131;28;20570;-85
2021/05/22 00:07:36;;;;;;;0.10;0.10;;;;;;;;;;5072145;28;20044;-86
2021/05/22 00:10:03;;;;;;;0.10;0.10;;;;;;;;;;5072369;28;20400;-86
2021/05/22 00:12:30;;;;;;;0.10;0.10;;;;;;;;;;5054548;28;20123;-86
2021/05/22 00:14:58;;;;;;;0.10;0.10;;;;;;;;;;5054826;28;20143;-86
2021/05/22 00:17:24;;;;;;;0.10;0.10;;;;;;;;;;5054238;28;20040;-85
2021/05/22 00:19:50;;;;;;;0.10;0.10;;;;;;;;;;5071035;28;20082;-86
2021/05/22 00:22:16;;;;;;;0.10;0.10;;;;;;;;;;5071016;28;20056;-85
2021/05/22 00:24:42;;;;;;;0.10;0.10;;;;;;;;;;5071012;28;20040;-85
2021/05/22 00:27:08;;;;;;;0.10;0.10;;;;;;;;;;5070772;28;20101;-85
2021/05/22 00:29:34;;;;;;;0.10;0.10;;;;;;;;;;5071083;28;20040;-86
2021/05/22 00:32:00;;;;;;;0.40;0.40;;;;;;;;;;5070896;28;20036;-85
2021/05/22 00:34:26;;;;;;;0.10;0.10;;;;;;;;;;5070905;28;20120;-85
2021/05/22 00:36:52;;;;;;;0.10;0.10;;;;;;;;;;5071822;28;20123;-85
2021/05/22 00:39:18;;;;;;;0.10;0.10;;;;;;;;;;5072019;28;20549;-86
2021/05/22 00:41:44;;;;;;;0.10;0.10;;;;;;;;;;5070630;28;20039;-86
2021/05/22 00:44:10;;;;;;;0.10;0.10;;;;;;;;;;5054140;28;20068;-86
2021/05/22 00:46:37;;;;;;;0.10;0.10;;;;;;;;;;5070883;28;20068;-85
2021/05/22 00:49:03;;;;;;;0.10;0.10;;;;;;;;;;5070855;28;20045;-86
2021/05/22 00:51:29;;;;;;;0.10;0.10;;;;;;;;;;5070740;28;20037;-85
2021/05/22 00:53:55;;;;;;;0.10;0.10;;;;;;;;;;5054001;28;20063;-86
2021/05/22 00:56:21;;;;;;;0.10;0.10;;;;;;;;;;5053873;28;20037;-85
2021/05/22 00:58:47;;;;;;;0.10;0.10;;;;;;;;;;5071872;28;20044;-85
2021/05/22 01:01:13;;;;;;;0.10;0.10;;;;;;;;;;5070608;28;20097;-85
2021/05/22 01:03:43;;;;;;;0.10;0.10;;;;;;;;;;5053870;28;20048;-84
2021/05/22 01:06:16;;;;;;;0.10;0.10;;;;;;;;;;5054080;28;20040;-85
2021/05/22 01:08:46;;;;;;;0.10;0.10;;;;;;;;;;5071602;28;20037;-84
2021/05/22 01:11:44;;;;;;;0.10;0.10;;;;;;;;;;5053983;28;20043;-85
2021/05/22 01:14:11;;;;;;;0.10;0.10;;;;;;;;;;5070526;28;20048;-84
2021/05/22 01:16:39;;;;;;;0.10;0.10;;;;;;;;;;5070455;28;20512;-84
2021/05/22 01:19:05;;;;;;;0.10;0.10;;;;;;;;;;5070519;28;20037;-83
2021/05/22 01:21:31;;;;;;;0.10;0.10;;;;;;;;;;5070334;28;20098;-84
2021/05/22 01:24:04;;;;;;;0.10;0.10;;;;;;;;;;5070454;28;20033;-84
2021/05/22 01:26:30;;;;;;;0.10;0.10;;;;;;;;;;5071517;28;20045;-83
2021/05/22 01:28:57;;;;;;;0.10;0.10;;;;;;;;;;5070347;28;20032;-85
2021/05/22 01:31:24;;;;;;;0.10;0.10;;;;;;;;;;5070346;28;20044;-85
2021/05/22 01:33:50;;;;;;;0.10;0.10;;;;;;;;;;5070290;28;20549;-85
2021/05/22 01:36:16;;;;;;;0.10;0.10;;;;;;;;;;5053633;28;20115;-85
2021/05/22 01:38:42;;;;;;;0.10;0.10;;;;;;;;;;5070701;28;20060;-85
2021/05/22 01:41:08;;;;;;;0.10;0.10;;;;;;;;;;5057421;28;20074;-86
2021/05/22 01:43:35;;;;;;;0.10;0.10;;;;;;;;;;5073727;28;20111;-85
2021/05/22 01:46:01;;;;;;;0.10;0.10;;;;;;;;;;5057155;28;20087;-85
2021/05/22 01:48:27;;;;;;;0.10;0.10;;;;;;;;;;5057031;28;20041;-86
2021/05/22 01:51:16;;;;;;;0.10;0.10;;;;;;;;;;5073640;28;20123;-87
2021/05/22 01:53:43;;;;;;;0.10;0.10;;;;;;;;;;5070704;28;20055;-86
2021/05/22 01:56:12;;;;;;;0.10;0.10;;;;;;;;;;5073658;28;20178;-84
2021/05/22 01:58:38;;;;;;;0.10;0.10;;;;;;;;;;5074795;28;20037;-85
2021/05/22 02:01:04;;;;;;;0.10;0.10;;;;;;;;;;5056887;28;20040;-84
2021/05/22 02:03:41;;;;;;;0.10;0.10;;;;;;;;;;5056774;28;20480;-84
2021/05/22 02:06:14;;;;;;;0.10;0.10;;;;;;;;;;5073413;28;20066;-85
2021/05/22 02:08:40;;;;;;;;;;;;;;;;;;5073890;28;20036;-85
2021/05/22 02:11:06;;;;;;;0.10;0.10;;;;;;;;;;5074378;28;19923;-84
2021/05/22 02:13:32;;;;;;;0.17;0.17;;;;;;;;;;5074416;28;20044;-84
2021/05/22 02:16:00;;;;;;;0.10;0.10;;;;;;;;;;5040252;28;20044;-85
2021/05/22 02:18:28;;;;;;;0.10;0.10;;;;;;;;;;5073076;28;20045;-85
2021/05/22 02:20:55;;;;;;;0.10;0.10;;;;;;;;;;5073112;28;20043;-84
2021/05/22 02:23:22;;;;;;;0.10;0.10;;;;;;;;;;5073179;28;20115;-85
2021/05/22 02:25:48;;;;;;;0.10;0.10;;;;;;;;;;5072981;28;20052;-85
2021/05/22 02:28:14;;;;;;;0.10;0.10;;;;;;;;;;5072948;28;20041;-85
2021/05/22 02:30:41;;;;;;;0.10;0.10;;;;;;;;;;5073065;28;20130;-85
2021/05/22 02:33:07;;;;;;;0.10;0.10;;;;;;;;;;5073067;28;20040;-84
2021/05/22 02:35:33;;;;;;;0.10;0.10;;;;;;;;;;5056198;28;20040;-84
2021/05/22 02:37:59;;;;;;;0.10;0.10;;;;;;;;;;5072599;28;20041;-84
2021/05/22 02:40:27;;;;;;;0.10;0.10;;;;;;;;;;5072738;28;20063;-84
2021/05/22 02:42:57;;;;;;;0.10;0.10;;;;;;;;;;5056084;28;20399;-84
2021/05/22 02:45:24;;;;;;;0.10;0.10;;;;;;;;;;5072640;28;20048;-84
2021/05/22 02:47:50;;;;;;;0.10;0.10;;;;;;;;;;5072609;28;20032;-85
2021/05/22 02:50:16;;;;;;;0.10;0.10;;;;;;;;;;5071583;28;20036;-85
2021/05/22 02:52:42;;;;;;;0.10;0.10;;;;;;;;;;5055964;28;20070;-87
2021/05/22 02:55:11;;;;;;;0.10;0.10;;;;;;;;;;5055777;28;20068;-87
2021/05/22 02:57:41;;;;;;;0.35;0.35;;;;;;;;;;5072383;28;20060;-86
2021/05/22 03:00:07;;;;;;;0.10;0.10;;;;;;;;;;5072447;28;20192;-86
2021/05/22 03:02:34;;;;;;;0.10;0.10;;;;;;;;;;5072245;28;20549;-87
2021/05/22 03:05:00;;;;;;;0.10;0.10;;;;;;;;;;5055709;28;20480;-87
2021/05/22 03:07:27;;;;;;;0.10;0.10;;;;;;;;;;5072065;28;20060;-87
2021/05/22 03:09:53;;;;;;;0.10;0.10;;;;;;;;;;5072084;28;20037;-86
2021/05/22 03:12:19;;;;;;;0.10;0.10;;;;;;;;;;5072089;28;20044;-86
2021/05/22 03:14:45;;;;;;;0.10;0.10;;;;;;;;;;5072094;28;20369;-86
2021/05/22 03:17:12;;;;;;;0.10;0.10;;;;;;;;;;5072106;28;20430;-86
2021/05/22 03:19:38;;;;;;;0.10;0.10;;;;;;;;;;5055425;28;20036;-86
2021/05/22 03:22:04;;;;;;;0.10;0.10;;;;;;;;;;5055214;28;20123;-86
2021/05/22 03:24:30;;;;;;;0.10;0.10;;;;;;;;;;5055190;28;20079;-84
2021/05/22 03:26:57;;;;;;;0.10;0.10;;;;;;;;;;5071723;28;20036;-84
2021/05/22 03:29:23;;;;;;;0.10;0.10;;;;;;;;;;5071758;28;20040;-85
2021/05/22 03:31:49;;;;;;;0.10;0.10;;;;;;;;;;5072939;28;20040;-85
2021/05/22 03:34:16;;;;;;;0.10;0.10;;;;;;;;;;5055288;28;20033;-85
2021/05/22 03:36:42;;;;;;;1.08;0.88;;;;;;;;;;5071336;28;20123;-86
2021/05/22 03:39:08;;;;;;;0.10;0.10;;;;;;;;;;5054976;28;20541;-86
2021/05/22 03:41:34;;;;;;;0.10;0.10;;;;;;;;;;5054859;28;20119;-85
2021/05/22 03:44:00;;;;;;;0.10;0.10;;;;;;;;;;5054907;28;20040;-85
2021/05/22 03:46:26;;;;;;;0.10;0.10;;;;;;;;;;5054807;28;20083;-86
2021/05/22 03:48:52;;;;;;;0.10;0.10;;;;;;;;;;5054843;28;20032;-86
2021/05/22 03:51:18;;;;;;;0.20;0.20;;;;;;;;;;5071327;28;20040;-85
2021/05/22 03:53:44;;;;;;;0.10;0.10;;;;;;;;;;5072615;28;20048;-85
2021/05/22 03:56:10;;;;;;;0.20;0.20;;;;;;;;;;5071242;28;20036;-87
2021/05/22 03:58:36;;;;;;;0.10;0.10;;;;;;;;;;5071337;28;20032;-87
2021/05/22 04:01:03;;;;;;;0.10;0.10;;;;;;;;;;5071231;28;20039;-86
2021/05/22 04:03:29;;;;;;;0.10;0.10;;;;;;;;;;5070777;28;20186;-85
2021/05/22 04:05:55;;;;;;;0.10;0.10;;;;;;;;;;5071148;28;20038;-84
2021/05/22 04:08:21;;;;;;;0.10;0.10;;;;;;;;;;5054508;28;20036;-85
2021/05/22 04:10:48;;;;;;;0.15;0.15;;;;;;;;;;5072432;28;20047;-85
2021/05/22 04:13:14;;;;;;;0.10;0.10;;;;;;;;;;5072373;28;20062;-85
2021/05/22 04:15:40;;;;;;;0.10;0.10;;;;;;;;;;5070899;28;20048;-86
2021/05/22 04:18:09;;;;;;;0.10;0.10;;;;;;;;;;5054310;28;20094;-86
2021/05/22 04:20:36;;;;;;;0.10;0.10;;;;;;;;;;5071009;28;20044;-86
2021/05/22 04:23:03;;;;;;;0.10;0.10;;;;;;;;;;5054306;28;20036;-86
2021/05/22 04:25:29;;;;;;;0.10;0.10;;;;;;;;;;5070966;28;20041;-86
2021/05/22 04:27:55;;;;;;;0.10;0.10;;;;;;;;;;5070870;28;20075;-86
2021/05/22 04:30:21;;;;;;;0.10;0.10;;;;;;;;;;5054269;28;20401;-86
2021/05/22 04:32:48;;;;;;;0.10;0.10;;;;;;;;;;5054318;28;20441;-85
2021/05/22 04:35:14;;;;;;;0.10;0.10;;;;;;;;;;5072036;28;20040;-86
2021/05/22 04:37:40;;;;;;;0.10;0.10;;;;;;;;;;5070620;28;20186;-86
2021/05/22 04:40:06;;;;;;;0.10;0.10;;;;;;;;;;5070782;28;20075;-85
2021/05/22 04:42:32;;;;;;;0.10;0.10;;;;;;;;;;5070789;28;20033;-86
2021/05/22 04:44:59;;;;;;;0.10;0.10;;;;;;;;;;5070819;28;20044;-87
2021/05/22 04:47:25;;;;;;;0.10;0.10;;;;;;;;;;5070686;28;20170;-87
2021/05/22 04:49:51;;;;;;;0.10;0.10;;;;;;;;;;5054058;28;20044;-85
2021/05/22 04:52:17;;;;;;;0.10;0.10;;;;;;;;;;5054236;28;20123;-87
2021/05/22 04:54:44;;;;;;;0.10;0.10;;;;;;;;;;5070641;28;20079;-88
2021/05/22 04:57:10;;;;;;;0.10;0.10;;;;;;;;;;5071805;28;20119;-87
2021/05/22 04:59:37;;;;;;;0.10;0.10;;;;;;;;;;5070603;28;20094;-87
2021/05/22 05:02:03;;;;;;;0.10;0.10;;;;;;;;;;5070465;28;20032;-85
2021/05/22 05:04:29;;;;;;;0.10;0.10;;;;;;;;;;5070552;28;20051;-87
2021/05/22 05:06:55;;;;;;;0.10;0.10;;;;;;;;;;5053948;28;20033;-87
2021/05/22 05:09:21;;;;;;;0.10;0.10;;;;;;;;;;5070717;28;20041;-88
2021/05/22 05:11:47;;;;;;;0.10;0.10;;;;;;;;;;5054245;28;20042;-87
2021/05/22 05:14:13;;;;;;;0.20;0.20;;;;;;;;;;5055363;28;20119;-88
2021/05/22 05:16:39;;;;;;;0.10;0.10;;;;;;;;;;5057767;28;20428;-89
2021/05/22 05:19:05;;;;;;;0.20;0.20;;;;;;;;;;5074717;28;20123;-89
2021/05/22 05:21:35;;;;;;;0.10;0.10;;;;;;;;;;5074910;28;20040;-89
2021/05/22 05:24:01;;;;;;;0.10;0.10;;;;;;;;;;5074504;28;20083;-89
2021/05/22 05:26:27;;;;;;;0.10;0.10;;;;;;;;;;5074534;28;20039;-89
2021/05/22 05:28:53;;;;;;;0.10;0.10;;;;;;;;;;5057725;28;20051;-90
2021/05/22 05:31:20;;;;;;;0.10;0.10;;;;;;;;;;5074213;28;20072;-87
2021/05/22 05:33:46;;;;;;;0.10;0.10;;;;;;;;;;5057651;28;20090;-88
2021/05/22 05:36:12;;;;;;;0.10;0.10;;;;;;;;;;5074296;28;20047;-88
2021/05/22 05:38:38;;;;;;;0.15;0.15;;;;;;;;;;5074089;28;20127;-87
2021/05/22 05:41:04;;;;;;;0.10;0.10;;;;;;;;;;5057453;28;20108;-89
2021/05/22 05:43:30;;;;;;;0.10;0.10;;;;;;;;;;5057646;28;20397;-88
2021/05/22 05:45:56;;;;;;;0.10;0.10;;;;;;;;;;5073867;28;20190;-88
2021/05/22 05:48:22;;;;;;;0.10;0.10;;;;;;;;;;5074060;28;20082;-89
2021/05/22 05:50:48;;;;;;;0.10;0.10;;;;;;;;;;5073961;28;20071;-89
2021/05/22 05:53:14;;;;;;;0.10;0.10;;;;;;;;;;5057004;28;20487;-88
2021/05/22 05:55:41;;;;;;;0.10;0.10;;;;;;;;;;5073884;28;20382;-89
2021/05/22 05:58:07;;;;;;;0.10;0.10;;;;;;;;;;5056998;28;20075;-88
2021/05/22 06:00:33;;;;;;;0.20;0.20;;;;;;;;;;5057338;28;20036;-88
2021/05/22 06:02:59;;;;;;;0.10;0.10;;;;;;;;;;5056939;28;20130;-88
2021/05/22 06:05:25;;;;;;;0.10;0.10;;;;;;;;;;5073841;28;20593;-89
2021/05/22 06:07:51;;;;;;;0.20;0.20;;;;;;;;;;5073624;28;20034;-88
2021/05/22 06:10:17;;;;;;;0.10;0.10;;;;;;;;;;5075136;28;20069;-88
2021/05/22 06:12:45;;;;;;;0.10;0.10;;;;;;;;;;5073423;28;20047;-88
2021/05/22 06:17:40;;;;;;;0.10;0.10;;;;;;;;;;5057141;28;20080;-88
2021/05/22 06:20:06;;;;;;;0.28;0.28;;;;;;;;;;5073492;28;20067;-86
2021/05/22 06:22:33;;;;;;;0.10;0.10;;;;;;;;;;5073196;28;20119;-87
2021/05/22 06:24:59;;;;;;;0.10;0.10;;;;;;;;;;5073186;28;20062;-88
2021/05/22 06:27:25;;;;;;;0.10;0.10;;;;;;;;;;5073237;28;20500;-87
2021/05/22 06:29:51;;;;;;;0.10;0.10;;;;;;;;;;5073240;28;20499;-87
2021/05/22 06:32:17;;;;;;;0.10;0.10;;;;;;;;;;5056374;28;20040;-87
2021/05/22 06:34:43;;;;;;;0.10;0.10;;;;;;;;;;5072912;28;20040;-87
2021/05/22 06:37:09;;;;;;;0.10;0.10;;;;;;;;;;5072608;28;20053;-86
2021/05/22 06:39:35;;;;;;;0.10;0.10;;;;;;;;;;5056469;28;20035;-87
2021/05/22 06:42:01;;;;;;;0.10;0.10;;;;;;;;;;5073844;28;20080;-88
2021/05/22 06:44:38;;;;;;;0.10;0.10;;;;;;;;;;5056257;28;20033;-88
2021/05/22 06:47:04;;;;;;;0.10;0.10;;;;;;;;;;5072632;28;20040;-88
2021/05/22 06:49:33;;;;;;;0.10;0.10;;;;;;;;;;5072673;28;20068;-85
2021/05/22 06:51:59;;;;;;;0.10;0.10;;;;;;;;;;5073199;28;20040;-84
2021/05/22 06:54:31;;;;;;;0.10;0.10;;;;;;;;;;5073662;28;20041;-84
2021/05/22 06:56:57;;;;;;;0.10;0.10;;;;;;;;;;5056326;28;20145;-84
2021/05/22 06:59:23;;;;;;;0.10;0.10;;;;;;;;;;5072546;28;20388;-84
2021/05/22 07:01:49;;;;;;;0.10;0.10;;;;;;;;;;5055357;28;20133;-85
2021/05/22 07:04:15;;;;;;;0.10;0.10;;;;;;;;;;5072263;28;20491;-85
2021/05/22 07:06:41;;;;;;;0.10;0.10;;;;;;;;;;5072194;28;20124;-85
2021/05/22 07:09:07;;;;;;;0.10;0.10;;;;;;;;;;5072011;28;20036;-84
2021/05/22 07:11:36;;;;;;;0.10;0.10;;;;;;;;;;5072061;28;20487;-85
2021/05/22 07:14:02;;;;;;;0.10;0.10;;;;;;;;;;5056424;28;20145;-85
2021/05/22 07:16:33;;;;;;;0.10;0.10;;;;;;;;;;5071967;28;20087;-86
2021/05/22 07:18:59;;;;;;;0.10;0.10;;;;;;;;;;5055494;28;20041;-86
2021/05/22 07:21:25;;;;;;;0.10;0.10;;;;;;;;;;5071934;28;20040;-85
2021/05/22 07:23:53;;;;;;;0.10;0.10;;;;;;;;;;5072900;28;20045;-85
2021/05/22 07:26:19;;;;;;;0.10;0.10;;;;;;;;;;5071734;28;20399;-86
2021/05/22 07:28:46;;;;;;;0.10;0.10;;;;;;;;;;5071815;28;20036;-86
2021/05/22 07:31:12;;;;;;;0.10;0.10;;;;;;;;;;5071701;28;20037;-86
2021/05/22 07:33:41;;;;;;;0.10;0.10;;;;;;;;;;5072882;28;20119;-86
2021/05/22 07:36:08;;;;;;;0.10;0.10;;;;;;;;;;5055004;28;20041;-85
2021/05/22 07:38:34;;;;;;;0.10;0.10;;;;;;;;;;5054632;28;20415;-84
2021/05/22 07:41:00;;;;;;;0.15;0.15;;;;;;;;;;5071725;28;20067;-85
2021/05/22 07:43:27;;;;;;;0.10;0.10;;;;;;;;;;5072823;28;20457;-85
2021/05/22 07:45:56;;;;;;;0.10;0.10;;;;;;;;;;5071507;28;20047;-86
2021/05/22 07:48:23;;;;;;;0.10;0.10;;;;;;;;;;5038500;28;20079;-85
2021/05/22 07:50:49;;;;;;;0.20;0.20;;;;;;;;;;5071404;28;20032;-87
2021/05/22 07:53:15;;;;;;;0.10;0.10;;;;;;;;;;5054844;28;20040;-86
2021/05/22 07:55:41;;;;;;;0.10;0.10;;;;;;;;;;5054841;28;20507;-85
2021/05/22 07:58:07;;;;;;;0.10;0.10;;;;;;;;;;5072341;28;20044;-86
2021/05/22 08:00:33;;;;;;;0.10;0.10;;;;;;;;;;5063505;28;20093;-86
2021/05/22 08:02:59;;;;;;;0.10;0.10;;;;;;;;;;5061556;28;20077;-86
2021/05/22 08:05:25;;;;;;;0.10;0.10;;;;;;;;;;5069582;28;20435;-85
2021/05/22 08:07:51;;;;;;;0.10;0.10;;;;;;;;;;5072365;28;20036;-87
2021/05/22 08:10:18;;;;;;;0.10;0.10;;;;;;;;;;5071280;28;20044;-86
2021/05/22 08:12:44;;;;;;;0.10;0.10;;;;;;;;;;5061106;28;20044;-86
2021/05/22 08:15:10;;;;;;;0.10;0.10;;;;;;;;;;5051152;28;20048;-85
2021/05/22 08:17:36;;;;;;;0.10;0.10;;;;;;;;;;5050934;28;20112;-86
2021/05/22 08:20:03;;;;;;;0.10;0.10;;;;;;;;;;5051194;28;20047;-89
2021/05/22 08:22:29;;;;;;;0.10;0.10;;;;;;;;;;5051294;28;20049;-89
2021/05/22 08:24:57;;;;;;;0.10;0.10;;;;;;;;;;5051478;28;20546;-85
2021/05/22 08:27:23;;;;;;;0.10;0.10;;;;;;;;;;5050940;28;20112;-86
2021/05/22 08:29:49;;;;;;;0.10;0.10;;;;;;;;;;5034551;28;20044;-84
2021/05/22 08:32:15;;;;;;;0.10;0.10;;;;;;;;;;5050841;28;20033;-84
2021/05/22 08:34:41;;;;;;;0.10;0.10;;;;;;;;;;5050831;28;20113;-84
2021/05/22 08:37:07;;;;;;;0.10;0.10;;;;;;;;;;5034019;28;20543;-84
2021/05/22 08:39:34;;;;;;;0.10;0.10;;;;;;;;;;5034404;28;20049;-83
2021/05/22 08:42:02;;;;;;;0.10;0.10;;;;;;;;;;5052118;28;20037;-84
2021/05/22 08:44:28;;;;;;;0.10;0.10;;;;;;;;;;5034264;28;20094;-84
2021/05/22 08:46:54;;;;;;;0.10;0.10;;;;;;;;;;5050706;28;20380;-85
2021/05/22 08:49:20;;;;;;;0.10;0.10;;;;;;;;;;5052395;28;20040;-84
2021/05/22 08:51:46;;;;;;;0.10;0.10;;;;;;;;;;5054894;28;20040;-84
2021/05/22 08:54:12;;;;;;;0.10;0.10;;;;;;;;;;5054723;28;20036;-84
2021/05/22 08:56:38;;;;;;;0.10;0.10;;;;;;;;;;5054721;28;20044;-84
2021/05/22 08:59:04;;;;;;;0.10;0.10;;;;;;;;;;5054876;28;20507;-84
2021/05/22 09:01:30;;;;;;;0.10;0.10;;;;;;;;;;5054584;28;20041;-84
2021/05/22 09:03:57;;;;;;;0.10;0.10;;;;;;;;;;5054505;28;20036;-84
2021/05/22 09:06:23;;;;;;;0.10;0.10;;;;;;;;;;5055646;28;20485;-85
2021/05/22 09:09:03;;;;;;;0.10;0.10;;;;;;;;;;5038105;28;20040;-86
2021/05/22 09:11:31;;;;;;;0.10;0.10;;;;;;;;;;5054458;28;20065;-86
2021/05/22 09:13:57;;;;;;;0.10;0.10;;;;;;;;;;5037979;28;20041;-84
2021/05/22 09:16:23;;;;;;;0.10;0.10;;;;;;;;;;5054222;28;20059;-84
2021/05/22 09:18:49;;;;;;;0.10;0.10;;;;;;;;;;5054291;28;20390;-84
2021/05/22 09:21:15;;;;;;;0.10;0.10;;;;;;;;;;5054334;28;20445;-84
2021/05/22 09:23:43;;;;;;;0.10;0.10;;;;;;;;;;5054118;28;20037;-86
2021/05/22 09:26:13;;;;;;;0.10;0.10;;;;;;;;;;5053965;28;20049;-84
2021/05/22 09:28:44;;;;;;;0.10;0.10;;;;;;;;;;5054074;28;20033;-85
2021/05/22 09:31:13;;;;;;;0.20;0.20;;;;;;;;;;5055329;28;20048;-87
2021/05/22 09:33:39;;;;;;;0.10;0.10;;;;;;;;;;5054188;28;20041;-86
2021/05/22 09:36:11;;;;;;;0.10;0.10;;;;;;;;;;5054097;28;20119;-89
2021/05/22 09:38:43;;;;;;;0.10;0.10;;;;;;;;;;5037577;28;20080;-85
2021/05/22 09:41:21;;;;;;;0.10;0.10;;;;;;;;;;5055049;28;20117;-85
2021/05/22 09:44:06;;;;;;;0.20;0.20;;;;;;;;;;5055130;28;20037;-84
2021/05/22 09:46:32;;;;;;;0.10;0.10;;;;;;;;;;5054995;28;20037;-85
2021/05/22 09:49:05;;;;;;;0.10;0.10;;;;;;;;;;5054754;28;20114;-85
2021/05/22 09:51:31;;;;;;;0.40;0.40;;;;;;;;;;5054770;28;20044;-85
2021/05/22 09:53:57;;;;;;;0.10;0.10;;;;;;;;;;5053553;28;20044;-85
2021/05/22 09:56:25;;;;;;;0.10;0.10;;;;;;;;;;5036904;28;20056;-87
2021/05/22 09:58:54;;;;;;;0.15;0.15;;;;;;;;;;5066671;28;20068;-83
2021/05/22 10:01:21;;;;;;;0.10;0.10;;;;;;;;;;5072040;28;20037;-83
2021/05/22 10:03:47;;;;;;;0.10;0.10;;;;;;;;;;5071783;28;20040;-82
2021/05/22 10:06:14;;;;;;;0.10;0.10;;;;;;;;;;5075669;28;20044;-83
2021/05/22 10:08:40;;;;;;;0.10;0.10;;;;;;;;;;5074802;28;20455;-83
2021/05/22 10:11:06;;;;;;;0.10;0.10;;;;;;;;;;5056876;28;20123;-84
2021/05/22 10:13:32;;;;;;;0.20;0.20;;;;;;;;;;5073265;28;20068;-83
2021/05/22 10:15:59;;;;;;;0.10;0.10;;;;;;;;;;5073418;28;20064;-83
2021/05/22 10:18:29;;;;;;;0.10;0.10;;;;;;;;;;5073364;28;20165;-85
2021/05/22 10:20:55;;;;;;;0.10;0.10;;;;;;;;;;5073037;28;20036;-83
2021/05/22 10:23:21;;;;;;;0.10;0.10;;;;;;;;;;5073041;28;20036;-84
2021/05/22 10:25:54;;;;;;;0.10;0.10;;;;;;;;;;5073089;28;20036;-84
2021/05/22 10:28:22;;;;;;;0.20;0.20;;;;;;;;;;5073400;28;20037;-84
2021/05/22 10:30:48;;;;;;;0.10;0.10;;;;;;;;;;5072951;28;20119;-85
2021/05/22 10:33:14;;;;;;;0.10;0.10;;;;;;;;;;5072750;28;20165;-86
2021/05/22 10:35:40;;;;;;;0.10;0.10;;;;;;;;;;5073019;28;20121;-84
2021/05/22 10:38:06;;;;;;;0.10;0.10;;;;;;;;;;5073876;28;20053;-84
2021/05/22 10:40:49;;;;;;;0.10;0.10;;;;;;;;;;5056269;28;20094;-85
2021/05/22 10:43:15;;;;;;;0.20;0.20;;;;;;;;;;5072723;28;20111;-84
2021/05/22 10:45:42;;;;;;;0.13;0.13;;;;;;;;;;5072632;28;20067;-84
2021/05/22 10:48:17;;;;;;;0.10;0.10;;;;;;;;;;5072708;28;20119;-83
2021/05/22 10:50:47;;;;;;;0.10;0.10;;;;;;;;;;5074390;28;20503;-86
2021/05/22 10:53:34;;;;;;;0.10;0.10;;;;;;;;;;5071537;28;20068;-86
2021/05/22 10:56:16;;;;;;;0.10;0.10;;;;;;;;;;5073678;28;20041;-86
2021/05/22 10:58:58;;;;;;;0.10;0.10;;;;;;;;;;5072313;28;20049;-87
2021/05/22 11:01:28;;;;;;;0.10;0.10;;;;;;;;;;5073440;28;20037;-86
2021/05/22 11:04:14;;;;;;;1.45;0.30;;;;;;;;;;5073467;28;20543;-86
2021/05/22 11:06:43;;;;;;;0.10;0.10;;;;;;;;;;5073364;28;20044;-85
2021/05/22 11:09:37;;;;;;;0.10;0.10;;;;;;;;;;5072224;28;20037;-86
2021/05/22 11:12:09;;;;;;;1.58;1.48;;;;;;;;;;5071239;28;20045;-85
2021/05/22 11:14:43;;;;;;;0.10;0.10;;;;;;;;;;5072012;28;20499;-83
2021/05/22 11:17:29;;;;;;;0.20;0.20;;;;;;;;;;5088531;28;20380;-85
2021/05/22 11:20:02;;;;;;;0.10;0.10;;;;;;;;;;5071816;28;20157;-85
2021/05/22 11:22:41;;;;;;;0.10;0.10;;;;;;;;;;5067837;28;20045;-83
2021/05/22 11:25:09;;;;;;;0.10;0.10;;;;;;;;;;5053054;28;20064;-84
2021/05/22 11:28:04;;;;;;;0.10;0.10;;;;;;;;;;5070177;28;20036;-85
2021/05/22 11:30:38;;;;;;;0.10;0.10;;;;;;;;;;5071173;28;20048;-84
2021/05/22 11:33:11;;;;;;;0.10;0.10;;;;;;;;;;5052972;28;20041;-84
2021/05/22 11:35:38;;;;;;;0.10;0.10;;;;;;;;;;5051749;28;20388;-84
2021/05/22 11:38:13;;;;;;;0.10;0.10;;;;;;;;;;5059867;28;20052;-84
2021/05/22 11:40:39;;;;;;;0.10;0.10;;;;;;;;;;5071853;28;20044;-85
2021/05/22 11:43:22;;;;;;;0.10;0.10;;;;;;;;;;5072709;28;20040;-84
2021/05/22 11:45:51;;;;;;;0.10;0.10;;;;;;;;;;5072726;28;20048;-86
2021/05/22 11:48:26;;;;;;;0.10;0.10;;;;;;;;;;5071211;28;20040;-85
2021/05/22 11:50:54;;;;;;;0.10;0.10;;;;;;;;;;5072635;28;20032;-85
2021/05/22 11:53:20;;;;;;;0.10;0.10;;;;;;;;;;5071358;28;20154;-84
2021/05/22 11:56:01;;;;;;;0.10;0.10;;;;;;;;;;5072527;28;20561;-84
2021/05/22 11:58:27;;;;;;;0.10;0.10;;;;;;;;;;5072384;28;20043;-85
2021/05/22 12:00:54;;;;;;;0.10;0.10;;;;;;;;;;5087890;28;20119;-86
2021/05/22 12:03:24;;;;;;;0.10;0.10;;;;;;;;;;5087968;28;20125;-87
2021/05/22 12:05:50;;;;;;;0.10;0.10;;;;;;;;;;5071132;28;20058;-86
2021/05/22 12:08:16;;;;;;;0.30;0.30;;;;;;;;;;5071296;28;20110;-86
2021/05/22 12:10:42;;;;;;;0.10;0.10;;;;;;;;;;5087754;28;20036;-86
2021/05/22 12:13:09;;;;;;;0.10;0.10;;;;;;;;;;5087757;28;20079;-86
2021/05/22 12:15:36;;;;;;;0.20;0.20;;;;;;;;;;5087742;28;20037;-88
2021/05/22 12:18:06;;;;;;;0.10;0.10;;;;;;;;;;5070960;28;20041;-86
2021/05/22 12:20:51;;;;;;;0.10;0.10;;;;;;;;;;5071156;28;20448;-87
2021/05/22 12:23:28;;;;;;;0.20;0.20;;;;;;;;;;5070619;28;20036;-86
2021/05/22 12:25:54;;;;;;;0.10;0.10;;;;;;;;;;5070907;28;20071;-88
2021/05/22 12:28:21;;;;;;;0.10;0.10;;;;;;;;;;5087575;28;20093;-86
2021/05/22 12:30:49;;;;;;;0.13;0.13;;;;;;;;;;5087612;28;20098;-86
2021/05/22 12:33:18;;;;;;;0.10;0.10;;;;;;;;;;5071100;28;20086;-86
2021/05/22 12:35:46;;;;;;;0.10;0.10;;;;;;;;;;5087431;28;20051;-87
2021/05/22 12:38:13;;;;;;;0.17;0.17;;;;;;;;;;5070686;28;20345;-87
2021/05/22 12:40:46;;;;;;;0.10;0.10;;;;;;;;;;5070726;28;20116;-87
2021/05/22 12:43:12;;;;;;;0.65;0.40;;;;;;;;;;5070744;28;20094;-88
2021/05/22 12:45:42;;;;;;;0.10;0.10;;;;;;;;;;5087466;28;20050;-87
2021/05/22 12:48:21;;;;;;;0.20;0.20;;;;;;;;;;5070749;28;20035;-87
2021/05/22 12:50:47;;;;;;;0.20;0.20;;;;;;;;;;5067048;28;20585;-86
2021/05/22 12:53:13;;;;;;;0.30;0.30;;;;;;;;;;5070535;28;20102;-86
2021/05/22 12:55:39;;;;;;;0.10;0.10;;;;;;;;;;5070590;28;20036;-86
2021/05/22 12:58:08;;;;;;;0.10;0.10;;;;;;;;;;5070588;28;20033;-86
2021/05/22 13:00:34;;;;;;;0.10;0.10;;;;;;;;;;5054209;28;20051;-87
2021/05/22 13:03:00;;;;;;;0.10;0.10;;;;;;;;;;5070540;28;20097;-86
2021/05/22 13:05:31;;;;;;;0.10;0.10;;;;;;;;;;5070223;28;20040;-87
2021/05/22 13:07:58;;;;;;;0.98;0.30;;;;;;;;;;5053890;28;20043;-86
2021/05/22 13:10:25;;;;;;;0.20;0.20;;;;;;;;;;5070431;28;20045;-88
2021/05/22 13:13:00;;;;;;;0.10;0.10;;;;;;;;;;5070503;28;20141;-87
2021/05/22 13:15:32;;;;;;;0.10;0.10;;;;;;;;;;5068883;28;20227;-87
2021/05/22 13:17:59;;;;;;;0.30;0.30;;;;;;;;;;5070271;28;20472;-88
2021/05/22 13:20:26;;;;;;;0.10;0.10;;;;;;;;;;5070497;28;20369;-86
2021/05/22 13:22:57;;;;;;;0.10;0.10;;;;;;;;;;5070354;28;20119;-86
2021/05/22 13:25:23;;;;;;;0.10;0.10;;;;;;;;;;5070378;28;20052;-86
2021/05/22 13:28:01;;;;;;;0.10;0.10;;;;;;;;;;5070407;28;20399;-86
2021/05/22 13:30:28;;;;;;;0.10;0.10;;;;;;;;;;5070077;28;20064;-86
2021/05/22 13:32:56;;;;;;;0.20;0.20;;;;;;;;;;5064517;28;20103;-86
2021/05/22 13:35:25;;;;;;;0.10;0.10;;;;;;;;;;5051742;28;20041;-86
2021/05/22 13:37:51;;;;;;;0.30;0.30;;;;;;;;;;5072458;28;20480;-86
2021/05/22 13:40:17;;;;;;;0.10;0.10;;;;;;;;;;5073912;28;20036;-86
2021/05/22 13:42:43;;;;;;;0.10;0.10;;;;;;;;;;5056567;28;20042;-86
2021/05/22 13:45:10;;;;;;;0.25;0.20;;;;;;;;;;5089976;28;20048;-86
2021/05/22 13:47:37;;;;;;;0.10;0.10;;;;;;;;;;5057222;28;20111;-87
2021/05/22 13:50:09;;;;;;;2.42;0.10;;;;;;;;;;5057294;28;20411;-88
2021/05/22 13:52:35;;;;;;;0.73;0.60;;;;;;;;;;5073792;28;20094;-90
2021/05/22 13:55:02;;;;;;;0.15;0.15;;;;;;;;;;5074808;28;20036;-85
2021/05/22 13:57:28;;;;;;;0.10;0.10;;;;;;;;;;5074565;28;20033;-86
2021/05/22 13:59:54;;;;;;;0.10;0.10;;;;;;;;;;5073591;28;20044;-87
2021/05/22 14:02:20;;;;;;;0.10;0.10;;;;;;;;;;5073490;28;20032;-87
2021/05/22 14:04:46;;;;;;;0.10;0.10;;;;;;;;;;5073496;28;20060;-87
2021/05/22 14:07:12;;;;;;;0.10;0.10;;;;;;;;;;5056714;28;20039;-87
2021/05/22 14:09:38;;;;;;;0.10;0.10;;;;;;;;;;5055804;28;20086;-84
2021/05/22 14:12:04;;;;;;;0.20;0.20;;;;;;;;;;5073108;28;20044;-85
2021/05/22 14:14:32;;;;;;;0.10;0.10;;;;;;;;;;5056609;28;20037;-86
2021/05/22 14:16:58;;;;;;;0.10;0.10;;;;;;;;;;5056445;28;20045;-87
2021/05/22 14:19:24;;;;;;;0.17;0.10;;;;;;;;;;5089950;28;20094;-86
2021/05/22 14:21:50;;;;;;;0.20;0.20;;;;;;;;;;5073173;28;20055;-87
2021/05/22 14:24:16;;;;;;;0.50;0.50;;;;;;;;;;5072968;28;20043;-87
2021/05/22 14:26:42;;;;;;;0.32;0.32;;;;;;;;;;5089821;28;20037;-87
2021/05/22 14:29:08;;;;;;;0.10;0.10;;;;;;;;;;5072956;28;20040;-87
2021/05/22 14:31:34;;;;;;;0.20;0.20;;;;;;;;;;5072917;28;20127;-87
2021/05/22 14:34:01;;;;;;;0.20;0.20;;;;;;;;;;5073013;28;20212;-87
2021/05/22 14:36:27;;;;;;;0.10;0.10;;;;;;;;;;5089549;28;20098;-86
2021/05/22 14:38:53;;;;;;;0.20;0.20;;;;;;;;;;5089570;28;20053;-87
2021/05/22 14:41:20;;;;;;;0.10;0.10;;;;;;;;;;5073958;28;20045;-86
2021/05/22 14:43:46;;;;;;;0.10;0.10;;;;;;;;;;5089309;28;20128;-86
2021/05/22 14:46:12;;;;;;;0.10;0.10;;;;;;;;;;5089309;28;20041;-87
2021/05/22 14:48:40;;;;;;;0.10;0.10;;;;;;;;;;5072638;28;20056;-86